西安 の空港の天気 - METARとTAF

西安咸陽国際空港 ( ZLXY / XIY ) - 中国 陝西省西安市
飛行場実況気象(Metar)
観測時間04/25 22:00 CST (04/25 14:00 UTC)
風向・風速北東 1m/s
視程10km以上
天気現象
なし
気温10℃
湿度94%
気圧1016hPa
METARZLXY 251400Z 05001MPS CAVOK 10/09 Q1016 NOSIG
過去の天気等 Google飛行場航空写真 Wunderground天気予報

過去48時間のMETAR

飛行場予報(TAF)
発表時間: 4/25 17:15 CST (4/25 09:15 UTC)
予報対象時間: 25日20時 CST ~ 26日20時 CST
風向・風速西南西 3m/s
視程3,000m
天気現象もや
なし
26日2時 CST ~ 26日8時 CST に一時的に
視程700m
天気現象
TAF ZLXY 250915Z 2512/2612 24003MPS 3000 BR NSC TX27/2608Z TN10/2522Z
TEMPO 2518/2524 0700 FG